Time;durP1;ratioP1;P1;durP2;ratioP2;P2;SDS_P1;SDS_P2;PMS_P1;PMS_P2;Temp;Humidity;BMP_temperature;BMP_pressure;BME280_temperature;BME280_humidity;BME280_pressure;Samples;Min_cycle;Max_cycle;Signal;HPM_P1;HPM_P2
2022/03/28 00:00:08;;;;;;;12.95;9.80;;;10.20;93.20;;;9.82;100.00;101447.81;4988761;28;20480;-77
2022/03/28 00:02:40;;;;;;;14.40;10.90;;;10.20;93.50;;;9.73;100.00;101445.19;4987649;28;20046;-76
2022/03/28 00:05:09;;;;;;;14.70;11.07;;;10.60;93.80;;;9.70;100.00;101446.09;4988834;28;20492;-76
2022/03/28 00:07:36;;;;;;;17.90;11.50;;;10.10;93.70;;;9.57;100.00;101431.25;4992222;28;20061;-78
2022/03/28 00:10:04;;;;;;;14.20;10.63;;;10.10;93.80;;;9.55;100.00;101439.13;4960482;28;20054;-77
2022/03/28 00:12:32;;;;;;;14.02;10.57;;;10.00;93.70;;;9.41;100.00;101436.53;4989765;28;20057;-76
2022/03/28 00:14:59;;;;;;;12.70;10.07;;;10.40;93.70;;;9.34;100.00;101442.66;4987742;28;20408;-78
2022/03/28 00:17:27;;;;;;;13.35;9.68;;;11.20;93.90;;;9.21;100.00;101426.94;4988687;28;20053;-77
2022/03/28 00:19:55;;;;;;;14.80;10.60;;;10.20;93.60;;;9.14;100.00;101419.94;4989506;28;20043;-77
2022/03/28 00:22:22;;;;;;;14.68;10.30;;;9.80;93.60;;;9.13;100.00;101433.06;4971410;28;20596;-77
2022/03/28 00:24:49;;;;;;;11.52;9.90;;;9.70;93.90;;;9.14;100.00;101425.19;4977637;28;20049;-76
2022/03/28 00:27:17;;;;;;;12.00;9.60;;;9.60;94.20;;;9.15;100.00;101419.06;4968158;28;20046;-78
2022/03/28 00:29:45;;;;;;;12.77;10.88;;;11.00;94.50;;;9.09;100.00;101426.97;4984298;28;20613;-77
2022/03/28 00:32:12;;;;;;;12.88;10.48;;;9.50;94.30;;;9.10;100.00;101422.56;4968750;28;20542;-77
2022/03/28 00:34:40;;;;;;;14.40;9.90;;;9.50;94.00;;;9.04;100.00;101421.72;4970237;28;20042;-75
2022/03/28 00:37:07;;;;;;;14.77;10.48;;;9.50;94.00;;;9.00;100.00;101411.19;4989749;28;20101;-77
2022/03/28 00:39:34;;;;;;;10.60;9.40;;;9.40;93.80;;;8.85;100.00;101419.97;4988201;28;20042;-76
2022/03/28 00:42:01;;;;;;;12.98;10.13;;;9.40;94.00;;;8.77;100.00;101410.31;4993929;28;20044;-77
2022/03/28 00:44:32;;;;;;;10.73;8.98;;;9.40;94.30;;;8.69;100.00;101417.34;4980105;28;20053;-77
2022/03/28 00:47:00;;;;;;;10.82;9.45;;;9.30;94.50;;;8.61;100.00;101411.19;4979286;28;20400;-76
2022/03/28 00:49:28;;;;;;;13.20;9.75;;;9.20;94.50;;;8.65;100.00;101411.22;4995589;28;20061;-74
2022/03/28 00:51:55;;;;;;;12.18;9.27;;;9.10;94.30;;;8.45;100.00;101405.03;4994952;28;20069;-77
2022/03/28 00:54:22;;;;;;;12.63;10.70;;;9.10;94.10;;;8.35;100.00;101401.50;4993721;28;20042;-77
2022/03/28 00:56:53;;;;;;;12.60;10.10;;;9.10;94.50;;;8.44;100.00;101408.53;4993945;28;20038;-78
2022/03/28 00:59:20;;;;;;;13.85;10.50;;;8.90;94.70;;;8.34;100.00;101415.50;4995064;28;20045;-78
2022/03/28 01:01:47;;;;;;;15.95;10.27;;;8.90;95.10;;;8.28;100.00;101408.50;4978825;28;20058;-77
2022/03/28 01:04:15;;;;;;;12.60;10.07;;;8.80;95.20;;;8.35;100.00;101401.50;4978827;28;20054;-77
2022/03/28 01:06:43;;;;;;;12.65;11.05;;;8.80;95.10;;;8.28;100.00;101403.25;4977222;28;20073;-76
2022/03/28 01:09:11;;;;;;;13.98;10.13;;;8.80;95.10;;;8.23;100.00;101395.38;4992753;28;20065;-76
2022/03/28 01:11:41;;;;;;;13.10;10.00;;;8.70;95.20;;;8.22;100.00;101404.13;4979893;28;20069;-78
2022/03/28 01:14:08;;;;;;;14.07;11.90;;;8.70;95.20;;;8.25;100.00;101405.84;4992453;28;20149;-77
2022/03/28 01:19:24;;;;;;;11.38;9.77;;;8.60;95.60;;;8.09;100.00;101402.34;4990784;28;20050;-76
2022/03/28 01:21:52;;;;;;;16.15;10.80;;;8.60;95.70;;;8.07;100.00;101390.97;4991594;28;20095;-76
2022/03/28 01:24:19;;;;;;;13.57;10.30;;;8.60;95.70;;;8.13;100.00;101392.75;4989733;28;20058;-76
2022/03/28 01:26:48;;;;;;;12.02;10.45;;;8.60;95.90;;;8.12;100.00;101391.84;4990710;28;20053;-77
2022/03/28 01:29:15;;;;;;;12.52;9.93;;;8.70;96.00;;;8.08;100.00;101395.34;4990679;28;20415;-76
2022/03/28 01:31:42;;;;;;;13.18;10.63;;;8.50;95.70;;;7.98;100.00;101383.97;4990309;28;20555;-76
2022/03/28 01:34:20;;;;;;;14.88;10.63;;;8.50;96.00;;;7.90;100.00;101380.44;4973116;28;20050;-77
2022/03/28 01:36:48;;;;;;;13.63;10.32;;;8.50;95.80;;;7.75;100.00;101383.88;4992199;28;20040;-75
2022/03/28 01:39:16;;;;;;;13.68;10.85;;;8.40;96.30;;;7.73;100.00;101381.25;4993258;28;20558;-77
2022/03/28 01:41:44;;;;;;;12.60;10.07;;;8.30;95.90;;;7.70;100.00;101380.34;5009339;28;20053;-77
2022/03/28 01:44:12;;;;;;;14.00;10.50;;;8.30;96.10;;;7.65;100.00;101388.22;4974423;28;20077;-76
2022/03/28 01:46:47;;;;;;;12.60;9.40;;;8.80;96.40;;;7.70;100.00;101377.72;4989655;28;20486;-76
2022/03/28 01:49:17;;;;;;;13.43;10.73;;;8.20;96.10;;;7.61;100.00;101363.75;4990054;28;20496;-77
2022/03/28 01:51:46;;;;;;;15.50;12.32;;;8.10;96.30;;;7.57;100.00;101374.19;4990447;28;20057;-77
2022/03/28 01:54:14;;;;;;;14.55;10.85;;;8.10;96.70;;;7.52;100.00;101366.31;4989325;28;20049;-77
2022/03/28 01:56:42;;;;;;;17.15;11.15;;;8.10;96.50;;;7.43;100.00;101369.75;4973564;28;20054;-76
2022/03/28 01:59:10;;;;;;;13.35;10.40;;;8.00;97.00;;;7.52;100.00;101363.69;4992965;28;20039;-76
2022/03/28 02:01:38;;;;;;;12.05;10.65;;;8.00;96.80;;;7.57;100.00;101361.97;4993346;28;20045;-76
2022/03/28 02:04:05;;;;;;;14.15;10.45;;;8.00;96.30;;;7.47;100.00;101366.28;4992449;28;20058;-77
2022/03/28 02:06:33;;;;;;;13.80;10.43;;;8.00;96.60;;;7.43;100.00;101361.91;4976857;28;20065;-77
2022/03/28 02:09:01;;;;;;;11.50;9.52;;;9.20;96.80;;;7.30;100.00;101362.69;5009160;28;20089;-75
2022/03/28 02:11:29;;;;;;;13.15;9.30;;;7.90;96.20;;;7.24;100.00;101356.56;4976664;28;20062;-77
2022/03/28 02:13:56;;;;;;;12.50;9.75;;;7.90;96.20;;;7.25;100.00;101357.44;4988799;28;20042;-76
2022/03/28 02:16:23;;;;;;;14.55;10.20;;;7.80;96.40;;;7.27;100.00;101347.88;5005498;28;20058;-77
2022/03/28 02:18:50;;;;;;;14.00;10.85;;;7.70;96.50;;;7.17;100.00;101356.53;4957945;28;20057;-76
2022/03/28 02:21:17;;;;;;;15.00;10.25;;;7.80;96.70;;;7.12;100.00;101347.78;4955171;28;20050;-75
2022/03/28 02:23:44;;;;;;;11.55;9.65;;;7.70;96.70;;;7.23;100.00;101353.94;4969916;28;20043;-77
2022/03/28 02:26:14;;;;;;;13.20;9.65;;;7.70;96.60;;;7.09;100.00;101354.72;4986491;28;20051;-76
2022/03/28 02:28:41;;;;;;;12.18;10.38;;;7.70;96.80;;;7.06;100.00;101353.84;4971588;28;20422;-77
2022/03/28 02:31:10;;;;;;;13.75;10.00;;;7.60;96.50;;;7.12;100.00;101347.78;4969357;28;20038;-76
2022/03/28 02:33:37;;;;;;;13.32;10.88;;;7.60;96.30;;;7.09;100.00;101341.63;4953894;28;20054;-76
2022/03/28 02:36:05;;;;;;;13.52;10.50;;;7.60;96.80;;;7.03;100.00;101349.47;4970017;28;20046;-77
2022/03/28 02:38:32;;;;;;;13.98;10.40;;;7.60;97.10;;;7.03;100.00;101343.38;4969799;28;20043;-77
2022/03/28 02:41:00;;;;;;;11.90;10.55;;;7.60;96.90;;;6.90;100.00;101345.91;4969889;28;20043;-77
2022/03/28 02:43:27;;;;;;;11.55;10.05;;;7.50;96.90;;;6.82;100.00;101347.56;4960207;28;20038;-78
2022/03/28 02:45:54;;;;;;;12.02;9.80;;;7.40;96.70;;;6.70;100.00;101342.25;4989362;28;20420;-78
2022/03/28 02:48:21;;;;;;;13.32;9.73;;;7.40;96.80;;;6.80;100.00;101344.06;4973360;28;20054;-77
2022/03/28 02:50:49;;;;;;;13.50;10.20;;;8.50;97.00;;;6.87;100.00;101347.59;4988919;28;20050;-77
2022/03/28 02:53:16;;;;;;;13.70;9.90;;;7.30;96.90;;;6.53;100.00;101343.88;4973490;28;20431;-76
2022/03/28 02:55:44;;;;;;;11.27;9.35;;;7.40;96.10;;;6.45;100.00;101348.16;4973291;28;20096;-77
2022/03/28 02:58:11;;;;;;;14.48;9.85;;;7.30;95.80;;;6.55;100.00;101340.38;5005173;28;20393;-75
2022/03/28 03:00:37;;;;;;;11.55;10.20;;;7.20;96.10;;;6.63;100.00;101336.97;4972782;28;20500;-76
2022/03/28 03:03:05;;;;;;;15.50;12.63;;;7.20;96.90;;;6.64;100.00;101343.09;4987702;28;20134;-77
2022/03/28 03:05:32;;;;;;;23.30;14.77;;;7.20;97.00;;;6.63;100.00;101341.31;4973267;28;20046;-77
2022/03/28 03:07:59;;;;;;;22.55;17.80;;;7.20;97.00;;;6.58;100.00;101338.69;4971616;28;20061;-77
2022/03/28 03:10:26;;;;;;;16.65;13.85;;;7.10;96.70;;;6.61;100.00;101325.63;4972699;28;20050;-77
2022/03/28 03:12:53;;;;;;;17.55;11.68;;;7.10;96.70;;;6.40;100.00;101328.94;4987705;28;20054;-76
2022/03/28 03:15:20;;;;;;;14.45;11.52;;;7.30;96.60;;;6.53;100.00;101327.28;4989119;28;20051;-76
2022/03/28 03:17:48;;;;;;;12.85;11.30;;;7.00;96.90;;;6.47;100.00;101322.03;4988023;28;20412;-77
2022/03/28 03:20:15;;;;;;;15.82;10.85;;;7.20;97.20;;;6.50;100.00;101329.88;4990044;28;20042;-77
2022/03/28 03:22:43;;;;;;;16.90;10.55;;;7.00;97.10;;;6.45;100.00;101329.84;4987875;28;20046;-76
2022/03/28 03:25:10;;;;;;;11.55;9.60;;;7.00;97.50;;;6.39;100.00;101332.41;4974714;28;20141;-77
2022/03/28 03:27:38;;;;;;;13.55;10.18;;;8.20;97.80;;;6.27;100.00;101324.47;4987379;28;20054;-77
2022/03/28 03:30:10;;;;;;;13.82;11.93;;;7.00;97.10;;;6.22;100.00;101333.13;4988103;28;20134;-77
2022/03/28 03:32:37;;;;;;;13.55;10.82;;;6.90;97.30;;;6.27;100.00;101325.34;4970780;28;20043;-76
2022/03/28 03:35:07;;;;;;;12.45;10.05;;;6.90;97.40;;;6.30;100.00;101317.53;4987762;28;20057;-77
2022/03/28 03:37:34;;;;;;;13.50;10.30;;;6.90;97.20;;;6.30;100.00;101320.13;4987795;28;20047;-78
2022/03/28 03:40:01;;;;;;;14.45;10.75;;;6.90;97.60;;;6.30;100.00;101324.47;4986973;28;20054;-78
2022/03/28 03:42:31;;;;;;;15.13;10.95;;;7.50;97.80;;;6.17;100.00;101319.16;4983545;28;20046;-77
2022/03/28 03:45:00;;;;;;;13.77;10.30;;;6.80;97.90;;;6.00;100.00;101318.06;4971178;28;20042;-76
2022/03/28 03:47:27;;;;;;;16.25;10.68;;;6.90;97.80;;;6.03;100.00;101323.38;4975188;28;20053;-77
2022/03/28 03:49:54;;;;;;;14.40;10.90;;;7.60;98.60;;;6.16;100.00;101325.22;4988158;28;20091;-76
2022/03/28 03:52:21;;;;;;;12.02;10.00;;;6.70;99.00;;;6.03;100.00;101319.00;4988429;28;20046;-76
2022/03/28 03:54:48;;;;;;;11.00;9.35;;;6.70;98.40;;;6.05;100.00;101319.03;4988589;28;20050;-76
2022/03/28 03:57:15;;;;;;;12.75;10.05;;;8.20;98.70;;;6.08;100.00;101324.28;4973006;28;20046;-76
2022/03/28 03:59:42;;;;;;;12.93;10.00;;;6.60;98.40;;;5.99;100.00;101322.44;4989639;28;20411;-76
2022/03/28 04:02:09;;;;;;;11.65;9.85;;;6.70;98.60;;;5.93;100.00;101320.63;4988247;28;20157;-77
2022/03/28 04:04:36;;;;;;;12.30;10.27;;;6.60;98.40;;;5.86;100.00;101324.03;4989168;28;20411;-75
2022/03/28 04:07:04;;;;;;;13.90;10.35;;;6.50;98.30;;;5.91;100.00;101326.69;4990326;28;20061;-76
2022/03/28 04:09:31;;;;;;;13.55;10.73;;;6.50;98.40;;;5.87;100.00;101319.69;4988524;28;20050;-76
2022/03/28 04:11:57;;;;;;;13.48;9.98;;;6.40;98.40;;;5.88;100.00;101319.72;4981985;28;20046;-77
2022/03/28 04:14:25;;;;;;;15.35;10.63;;;6.40;98.50;;;5.87;100.00;101330.13;4988768;28;20030;-77
2022/03/28 04:16:52;;;;;;;13.77;10.90;;;6.40;99.00;;;5.75;100.00;101326.50;4992099;28;20100;-77
2022/03/28 04:19:19;;;;;;;15.55;10.57;;;6.50;98.70;;;5.64;100.00;101323.78;4993755;28;20368;-77
2022/03/28 04:21:48;;;;;;;15.32;10.40;;;6.40;98.40;;;5.60;100.00;101327.22;5010124;28;20050;-77
2022/03/28 04:24:15;;;;;;;12.77;10.30;;;6.30;98.70;;;5.69;100.00;101323.84;4976059;28;20407;-76
2022/03/28 04:26:42;;;;;;;11.20;9.38;;;6.30;98.20;;;5.51;100.00;101328.00;4981732;28;20042;-78
2022/03/28 04:29:10;;;;;;;12.07;9.77;;;7.80;98.50;;;5.44;100.00;101336.59;5010586;28;20129;-77
2022/03/28 04:31:40;;;;;;;13.82;9.43;;;6.10;98.00;;;5.28;100.00;101338.13;4995566;28;20503;-78
2022/03/28 04:34:09;;;;;;;15.13;11.40;;;6.10;97.50;;;5.38;100.00;101347.81;4980895;28;20050;-77
2022/03/28 04:36:40;;;;;;;12.98;10.82;;;6.00;97.80;;;5.30;100.00;101341.63;4974027;28;20680;-76
2022/03/28 04:39:07;;;;;;;14.00;9.93;;;6.00;98.10;;;5.37;100.00;101337.38;4991243;28;20690;-78
2022/03/28 04:41:34;;;;;;;14.25;10.45;;;6.50;97.90;;;5.25;100.00;101344.19;4991272;28;20447;-76
2022/03/28 04:44:01;;;;;;;13.18;10.98;;;6.00;97.60;;;5.39;100.00;101341.78;4990480;28;20050;-76
2022/03/28 04:46:28;;;;;;;18.52;11.50;;;5.90;98.50;;;5.34;100.00;101332.13;4998253;28;20121;-76
2022/03/28 04:48:55;;;;;;;13.10;11.70;;;6.00;98.70;;;5.39;100.00;101343.50;4998363;28;20042;-74
2022/03/28 04:51:22;;;;;;;16.05;11.00;;;6.00;98.80;;;5.32;100.00;101342.53;4991281;28;20057;-74
2022/03/28 04:53:49;;;;;;;14.07;10.85;;;6.00;98.80;;;5.43;100.00;101340.06;4992535;28;20034;-76
2022/03/28 04:56:16;;;;;;;13.95;10.40;;;5.90;98.60;;;5.31;100.00;101340.78;4993288;28;20053;-73
2022/03/28 04:58:43;;;;;;;14.52;12.52;;;5.90;98.90;;;5.23;100.00;101342.41;4991672;28;20039;-77
2022/03/28 05:01:11;;;;;;;16.83;11.95;;;5.90;99.00;;;5.33;100.00;101340.81;4992091;28;20049;-79
2022/03/28 05:03:38;;;;;;;13.13;11.55;;;6.30;99.30;;;5.24;100.00;101338.97;4974929;28;20119;-76
2022/03/28 05:06:05;;;;;;;17.42;11.60;;;5.80;99.10;;;5.28;100.00;101340.75;4992691;28;20464;-75
2022/03/28 05:08:32;;;;;;;18.55;12.68;;;5.90;99.00;;;5.27;100.00;101338.09;4991623;28;20072;-75
2022/03/28 05:10:59;;;;;;;15.02;11.55;;;5.80;99.40;;;5.13;100.00;101344.00;4991191;28;20042;-77
2022/03/28 05:13:27;;;;;;;16.63;10.85;;;5.70;99.20;;;5.05;100.00;101338.66;4974159;28;20053;-76
2022/03/28 05:15:54;;;;;;;18.00;11.90;;;5.70;99.40;;;5.19;100.00;101338.00;4974404;28;20046;-76
2022/03/28 05:18:21;;;;;;;14.85;10.98;;;5.70;99.40;;;4.95;100.00;101342.03;4990544;28;20049;-77
2022/03/28 05:20:48;;;;;;;15.25;11.38;;;5.70;99.40;;;4.97;100.00;101341.16;4990660;28;20042;-77
2022/03/28 05:23:15;;;;;;;16.08;11.85;;;5.70;99.10;;;5.10;100.00;101349.19;4989683;28;20053;-77
2022/03/28 05:25:43;;;;;;;12.20;10.75;;;6.70;99.90;;;5.20;100.00;101345.84;4991069;28;20476;-79
2022/03/28 05:28:10;;;;;;;14.20;11.70;;;5.70;99.90;;;5.17;100.00;101344.94;5009914;28;20051;-79
2022/03/28 05:30:37;;;;;;;14.85;13.00;;;5.70;99.90;;;5.15;100.00;101341.41;4974882;28;20061;-77
2022/03/28 05:33:04;;;;;;;14.25;11.85;;;5.70;99.90;;;5.20;100.00;101337.13;4991245;28;20133;-77
2022/03/28 05:35:32;;;;;;;22.65;13.95;;;5.70;99.90;;;5.16;100.00;101328.41;4975202;28;20675;-78
2022/03/28 05:37:59;;;;;;;15.52;12.30;;;5.70;99.90;;;5.20;100.00;101339.75;4991892;28;20412;-77
2022/03/28 05:40:26;;;;;;;17.85;14.10;;;5.80;99.90;;;5.22;100.00;101341.53;4992463;28;20058;-76
2022/03/28 05:42:53;;;;;;;18.27;13.75;;;5.80;99.60;;;5.22;100.00;101344.13;4973409;28;20678;-77
2022/03/28 05:45:20;;;;;;;18.30;13.25;;;5.80;99.90;;;5.25;100.00;101336.34;4973552;28;20126;-76
2022/03/28 05:47:47;;;;;;;16.73;13.18;;;5.70;99.90;;;5.28;100.00;101351.19;4958953;28;20057;-75
2022/03/28 05:50:14;;;;;;;15.90;12.48;;;5.80;99.90;;;5.36;100.00;101343.44;4975126;28;20133;-78
2022/03/28 05:52:42;;;;;;;18.27;13.00;;;6.10;99.90;;;5.26;100.00;101347.69;4974265;28;20393;-77
2022/03/28 05:55:10;;;;;;;16.85;13.88;;;5.90;99.90;;;5.31;100.00;101348.59;4974585;28;20129;-76
2022/03/28 05:57:37;;;;;;;17.65;12.85;;;6.60;99.90;;;5.27;100.00;101348.53;4975109;28;20043;-78
2022/03/28 06:00:05;;;;;;;15.48;13.02;;;7.30;99.90;;;5.38;100.00;101347.81;4959262;28;20149;-76
2022/03/28 06:02:38;;;;;;;19.33;12.30;;;5.90;99.80;;;5.49;100.00;101350.59;4976584;28;20512;-76
2022/03/28 06:05:06;;;;;;;14.57;12.40;;;5.90;99.70;;;5.50;100.00;101348.84;4970484;28;20121;-76
2022/03/28 06:07:34;;;;;;;18.23;13.52;;;5.90;99.90;;;5.61;100.00;101352.47;4954380;28;20051;-77
2022/03/28 06:10:02;;;;;;;15.65;13.05;;;6.00;99.90;;;5.66;100.00;101344.69;4970475;28;20181;-77
2022/03/28 06:12:30;;;;;;;17.88;13.50;;;6.00;99.90;;;5.68;100.00;101346.44;4970782;28;20859;-76
2022/03/28 06:14:57;;;;;;;17.08;12.95;;;6.10;99.90;;;5.64;100.00;101354.25;4989822;28;20046;-76
2022/03/28 06:17:26;;;;;;;20.58;13.15;;;6.10;99.90;;;5.63;100.00;101342.91;4988706;28;20058;-76
2022/03/28 06:19:53;;;;;;;16.50;12.27;;;6.20;99.90;;;5.58;100.00;101351.56;4990140;28;20471;-77
2022/03/28 06:22:23;;;;;;;18.48;12.30;;;6.20;99.90;;;5.49;100.00;101353.19;4989463;28;20046;-77
2022/03/28 06:25:08;;;;;;;18.95;13.55;;;6.20;99.90;;;5.57;100.00;101349.78;4990252;28;20034;-77
2022/03/28 06:27:55;;;;;;;18.23;14.25;;;6.10;99.90;;;5.56;100.00;101346.31;4977819;28;20046;-77
2022/03/28 06:30:25;;;;;;;21.75;15.40;;;6.10;99.90;;;5.59;100.00;101348.97;4991050;28;20133;-76
2022/03/28 06:32:53;;;;;;;23.13;15.38;;;6.20;99.90;;;5.64;100.00;101349.03;4989613;28;20455;-80
2022/03/28 06:35:20;;;;;;;18.85;15.52;;;6.20;99.90;;;5.68;100.00;101351.69;4989900;28;20403;-77
2022/03/28 06:37:52;;;;;;;18.38;13.43;;;6.20;99.90;;;5.72;100.00;101352.59;4988686;28;20043;-76
2022/03/28 06:40:20;;;;;;;21.52;14.43;;;6.70;99.90;;;5.80;100.00;101347.47;4992630;28;20050;-76
2022/03/28 06:42:47;;;;;;;15.43;13.05;;;6.30;99.90;;;5.94;100.00;101350.25;4974037;28;20046;-77
2022/03/28 06:45:15;;;;;;;20.27;15.75;;;6.40;99.90;;;6.17;100.00;101358.38;4990417;28;20046;-76
2022/03/28 06:47:51;;;;;;;22.90;17.35;;;6.40;99.90;;;6.35;100.00;101362.00;4989143;28;20057;-76
2022/03/28 06:50:21;;;;;;;19.42;14.15;;;6.50;99.90;;;6.52;100.00;101362.16;4992903;28;20046;-77
2022/03/28 06:52:48;;;;;;;22.45;15.85;;;7.70;99.90;;;6.67;100.00;101357.03;4961256;28;20093;-78
2022/03/28 06:55:15;;;;;;;20.73;15.07;;;6.80;99.90;;;6.73;100.00;101358.84;5009258;28;20046;-77
2022/03/28 06:57:42;;;;;;;22.70;18.63;;;8.10;99.90;;;6.80;100.00;101347.56;5006231;28;20053;-77
2022/03/28 07:00:10;;;;;;;21.40;16.23;;;7.10;99.90;;;6.93;100.00;101350.25;4974022;28;20038;-77
2022/03/28 07:02:38;;;;;;;29.95;23.13;;;7.20;99.90;;;7.06;100.00;101349.47;4972470;28;20133;-77
2022/03/28 07:05:07;;;;;;;22.30;17.92;;;7.30;99.90;;;7.16;100.00;101333.84;4990018;28;20042;-77
2022/03/28 07:07:49;;;;;;;23.55;16.05;;;7.40;99.90;;;7.23;100.00;101336.50;4973681;28;20050;-77
2022/03/28 07:10:21;;;;;;;23.77;16.45;;;7.50;99.90;;;7.40;100.00;101343.56;4992500;28;20046;-78
2022/03/28 07:12:51;;;;;;;21.42;16.50;;;8.10;99.90;;;7.51;100.00;101344.50;4989224;28;20400;-79
2022/03/28 07:15:18;;;;;;;;;;;7.70;99.80;;;7.63;100.00;101334.91;4990594;28;20149;-79
2022/03/28 07:17:55;;;;;;;22.33;14.82;;;7.80;99.90;;;7.67;100.00;101323.59;4989880;28;19921;-76
2022/03/28 07:20:26;;;;;;;18.05;13.88;;;7.90;99.40;;;7.77;100.00;101329.75;4984701;28;20079;-77
2022/03/28 07:22:55;;;;;;;25.45;17.65;;;7.90;98.80;;;7.86;100.00;101327.13;5001306;28;20065;-75
2022/03/28 07:25:24;;;;;;;124.75;83.22;;;8.10;98.70;;;8.00;100.00;101328.91;5006251;28;20046;-76
2022/03/28 07:27:52;;;;;;;57.15;37.33;;;8.20;99.20;;;8.06;100.00;101323.69;5001347;28;20145;-78
2022/03/28 07:30:21;;;;;;;124.10;79.80;;;8.30;99.00;;;8.18;100.00;101323.69;5001042;28;20047;-76
2022/03/28 07:32:51;;;;;;;56.78;44.20;;;9.50;99.50;;;8.29;100.00;101322.84;5001124;28;20058;-77
2022/03/28 07:35:37;;;;;;;26.40;19.05;;;7.10;99.00;;;8.37;100.00;101311.47;4984838;28;20043;-76
2022/03/28 07:38:07;;;;;;;27.40;23.13;;;8.80;99.10;;;8.47;100.00;101322.00;4984975;28;20043;-77
2022/03/28 07:40:39;;;;;;;29.60;21.27;;;8.60;99.00;;;8.56;100.00;101315.91;4985082;28;20571;-76
2022/03/28 07:43:07;;;;;;;28.48;21.85;;;8.70;98.80;;;8.60;100.00;101320.25;5004748;28;20059;-77
2022/03/28 07:45:35;;;;;;;25.33;19.80;;;8.90;98.40;;;8.65;100.00;101318.50;4972163;28;20249;-78
2022/03/28 07:48:05;;;;;;;21.23;15.93;;;8.90;98.10;;;8.72;100.00;101315.00;4988367;28;20124;-77
2022/03/28 07:50:32;;;;;;;27.58;20.35;;;8.90;98.70;;;8.74;100.00;101314.97;4993956;28;20132;-77
2022/03/28 07:53:17;;;;;;;19.00;14.35;;;9.00;98.80;;;8.90;100.00;101318.47;4994969;28;20038;-77
2022/03/28 07:55:45;;;;;;;23.30;15.88;;;9.10;99.10;;;9.01;100.00;101318.44;4977618;28;20077;-75
2022/03/28 07:58:14;;;;;;;23.55;18.80;;;10.50;99.50;;;9.21;100.00;101318.41;4979171;28;20043;-77
2022/03/28 08:00:44;;;;;;;24.48;18.30;;;9.70;99.50;;;9.29;100.00;101311.38;4994877;28;20050;-78
2022/03/28 08:03:11;;;;;;;21.05;17.60;;;9.50;99.10;;;9.39;100.00;101321.84;4979867;28;20038;-77
2022/03/28 08:05:39;;;;;;;22.27;16.35;;;9.50;99.10;;;9.50;100.00;101305.16;4996869;28;20052;-77
2022/03/28 08:08:24;;;;;;;23.30;16.02;;;9.80;99.30;;;9.55;100.00;101305.13;4998379;28;20451;-78
2022/03/28 08:10:51;;;;;;;22.00;16.27;;;9.80;99.20;;;9.60;100.00;101297.22;5001086;28;20554;-76
2022/03/28 08:13:17;;;;;;;21.55;16.70;;;9.80;99.20;;;9.67;100.00;101291.06;4998303;28;20069;-77
2022/03/28 08:15:44;;;;;;;20.88;15.68;;;9.80;99.10;;;9.79;100.00;101296.25;4996014;28;20039;-77
2022/03/28 08:18:12;;;;;;;23.95;17.80;;;9.90;98.90;;;9.91;100.00;101282.16;4995666;28;20038;-77
2022/03/28 08:20:39;;;;;;;22.10;15.23;;;10.00;98.70;;;10.01;100.00;101275.09;4978291;28;20057;-77
2022/03/28 08:23:06;;;;;;;46.58;34.22;;;10.10;98.70;;;10.07;100.00;101274.19;4978588;28;20047;-78
2022/03/28 08:25:33;;;;;;;31.25;20.85;;;10.20;98.50;;;10.17;100.00;101275.84;4995534;28;20046;-77
2022/03/28 08:28:03;;;;;;;24.50;16.95;;;10.30;98.60;;;10.33;100.00;101275.72;4995121;28;20122;-78
2022/03/28 08:30:30;;;;;;;;;;;10.40;98.40;;;10.45;100.00;101275.63;4979594;28;20050;-78
2022/03/28 08:32:57;;;;;;;56.22;40.92;;;10.50;98.10;;;10.63;100.00;101271.09;4995877;28;19932;-77
2022/03/28 08:35:25;;;;;;;71.63;55.22;;;10.60;97.90;;;10.74;100.00;101273.59;4996050;28;20670;-78
2022/03/28 08:37:52;;;;;;;36.95;30.95;;;10.80;97.80;;;10.88;100.00;101263.81;4998858;28;20038;-78
2022/03/28 08:40:19;;;;;;;28.58;25.05;;;10.90;97.70;;;10.96;100.00;101273.41;5000367;28;20046;-77
2022/03/28 08:42:48;;;;;;;26.10;20.95;;;11.50;97.60;;;11.04;100.00;101267.16;5009503;28;20049;-79
2022/03/28 08:45:16;;;;;;;21.95;16.55;;;11.10;97.40;;;11.17;100.00;101270.50;4997967;28;20154;-77
2022/03/28 08:47:47;;;;;;;26.83;17.88;;;11.30;97.60;;;11.25;100.00;101269.56;4979924;28;20121;-76
2022/03/28 08:50:35;;;;;;;20.95;16.83;;;12.30;97.70;;;11.43;100.00;101271.06;4996114;28;20046;-78
2022/03/28 08:53:05;;;;;;;21.23;16.35;;;11.50;97.40;;;11.53;100.00;101256.00;4994425;28;20570;-78
2022/03/28 08:55:33;;;;;;;25.10;20.27;;;12.20;97.50;;;11.66;100.00;101257.56;4994716;28;20042;-79
2022/03/28 08:58:02;;;;;;;24.67;16.98;;;11.70;97.30;;;11.72;100.00;101249.59;4959521;28;20061;-78
2022/03/28 09:00:50;;;;;;;20.70;16.40;;;11.80;97.20;;;11.90;100.00;101251.06;4977414;28;20742;-78
2022/03/28 09:03:18;;;;;;;22.67;18.38;;;11.90;97.10;;;11.99;100.00;101249.19;4956896;28;20055;-78
2022/03/28 09:06:32;;;;;;;20.20;16.45;;;12.00;96.80;;;12.14;100.00;101250.72;4975155;28;20569;-78
2022/03/28 09:09:12;;;;;;;23.02;16.50;;;12.10;96.60;;;12.22;100.00;101251.47;4973758;28;20551;-79
2022/03/28 09:11:42;;;;;;;24.85;16.83;;;12.20;96.60;;;12.29;100.00;101249.63;4992891;28;20057;-78
2022/03/28 09:14:28;;;;;;;25.88;17.05;;;12.30;96.30;;;12.42;100.00;101248.50;4991534;28;20607;-77
2022/03/28 09:17:09;;;;;;;23.77;16.75;;;12.40;96.30;;;12.55;100.00;101241.22;4989762;28;20039;-78
2022/03/28 09:19:55;;;;;;;23.75;16.90;;;12.90;96.00;;;12.59;100.00;101239.41;4991269;28;20459;-77
2022/03/28 09:22:29;;;;;;;22.48;16.95;;;12.60;95.50;;;12.71;100.00;101235.66;4974320;28;20049;-77
2022/03/28 09:25:06;;;;;;;20.70;16.60;;;12.70;95.50;;;12.87;100.00;101229.19;4990978;28;20050;-76
2022/03/28 09:27:39;;;;;;;23.92;16.92;;;12.80;95.50;;;13.10;100.00;101229.63;4989579;28;20047;-73
2022/03/28 09:30:20;;;;;;;22.00;17.75;;;13.00;95.30;;;13.23;100.00;101228.47;4993401;28;20038;-79
2022/03/28 09:33:07;;;;;;;18.70;14.95;;;13.20;95.30;;;13.41;100.00;101221.88;4996194;28;20041;-79
2022/03/28 09:35:52;;;;;;;22.20;16.63;;;13.30;95.30;;;13.49;100.00;101210.31;4994433;28;20514;-78
2022/03/28 09:38:19;;;;;;;18.90;15.77;;;13.40;95.10;;;13.51;100.00;101206.75;4978950;28;20149;-81
2022/03/28 09:40:53;;;;;;;21.42;17.30;;;13.50;95.20;;;13.65;100.00;101208.16;4980924;28;20061;-80
2022/03/28 09:43:31;;;;;;;22.50;15.68;;;13.60;95.00;;;13.72;100.00;101194.78;4996809;28;20073;-80
2022/03/28 09:45:59;;;;;;;23.92;18.75;;;13.70;94.70;;;13.86;100.00;101201.50;4978717;28;20050;-80
2022/03/28 09:48:28;;;;;;;23.63;15.13;;;13.80;94.50;;;13.89;100.00;101188.19;4998336;28;20079;-80
2022/03/28 09:51:05;;;;;;;22.80;17.58;;;14.70;94.70;;;14.04;99.74;101192.25;4997590;28;20058;-79
2022/03/28 09:53:38;;;;;;;19.85;15.38;;;14.00;94.20;;;14.13;97.63;101178.81;4998243;28;20043;-79
2022/03/28 09:56:10;;;;;;;23.30;15.95;;;14.10;94.00;;;14.24;99.27;101173.22;4977185;28;20100;-80
2022/03/28 09:58:56;;;;;;;20.35;17.08;;;14.20;94.10;;;14.32;96.22;101173.88;4996686;28;20077;-83
2022/03/28 10:01:31;;;;;;;20.58;16.02;;;14.30;93.80;;;14.37;96.30;101172.91;4980522;28;20050;-81
2022/03/28 10:04:05;;;;;;;18.95;15.38;;;14.30;93.70;;;14.45;94.98;101165.59;5016966;28;20050;-81
2022/03/28 10:06:38;;;;;;;23.25;14.82;;;14.40;93.60;;;14.54;91.41;101160.06;4979682;28;20054;-81
2022/03/28 10:09:07;;;;;;;22.50;15.63;;;14.50;93.20;;;14.71;90.86;101158.72;4992072;28;20145;-82
2022/03/28 10:11:38;;;;;;;20.17;15.60;;;14.60;93.20;;;14.87;89.57;101162.69;4986034;28;20046;-81
2022/03/28 10:14:22;;;;;;;20.10;15.68;;;14.70;93.00;;;14.93;87.31;101142.22;4995804;28;20057;-81
2022/03/28 10:16:50;;;;;;;21.02;14.90;;;14.90;92.80;;;15.00;86.15;101134.03;4985125;28;20053;-82